Weather at César Manrique-Lanzarote Airport

Public forecast

Using degrees Celsius for public forecast. Weather courtesy of forecast.io.

Current aviation weather report (METAR) for César Manrique-Lanzarote Airport

Report is more than 6 hours old.

2022/11/14 15:30 (retrieved 2 years ago)

GCRR 141530Z 08003KT CAVOK 26/19 Q1019

Aviation forecast (TAF) for César Manrique-Lanzarote Airport

Forecast is more than 12 hours old.

2023/02/22 21:00 (retrieved 1 year ago)

TAF GCRR 222000Z 2221/2321 02014KT 9999 BKN030 TX21/2314Z TN15/2306Z PROB40 TEMPO 2310/2314 36017G27KT BECMG 2318/2320 32007KT